sensor_id;sensor_type;location;lat;lon;timestamp;P1;durP1;ratioP1;P2;durP2;ratioP2
37199;SDS011;23096;50.892;16.746;2022-08-21T00:00:45;9.60;;;8.00;;
37199;SDS011;23096;50.892;16.746;2022-08-21T00:03:12;8.90;;;8.08;;
37199;SDS011;23096;50.892;16.746;2022-08-21T00:05:40;8.93;;;8.13;;
37199;SDS011;23096;50.892;16.746;2022-08-21T00:08:12;9.08;;;8.23;;
37199;SDS011;23096;50.892;16.746;2022-08-21T00:10:39;9.68;;;8.78;;
37199;SDS011;23096;50.892;16.746;2022-08-21T00:13:06;9.50;;;8.60;;
37199;SDS011;23096;50.892;16.746;2022-08-21T00:15:33;10.40;;;9.40;;
37199;SDS011;23096;50.892;16.746;2022-08-21T00:18:02;9.85;;;8.95;;
37199;SDS011;23096;50.892;16.746;2022-08-21T00:20:31;10.35;;;9.40;;
37199;SDS011;23096;50.892;16.746;2022-08-21T00:22:57;10.68;;;9.65;;
37199;SDS011;23096;50.892;16.746;2022-08-21T00:25:24;11.35;;;9.23;;
37199;SDS011;23096;50.892;16.746;2022-08-21T00:27:51;10.45;;;9.25;;
37199;SDS011;23096;50.892;16.746;2022-08-21T00:30:19;10.25;;;9.15;;
37199;SDS011;23096;50.892;16.746;2022-08-21T00:32:46;10.20;;;9.20;;
37199;SDS011;23096;50.892;16.746;2022-08-21T00:35:14;11.05;;;9.85;;
37199;SDS011;23096;50.892;16.746;2022-08-21T00:37:43;10.55;;;9.55;;
37199;SDS011;23096;50.892;16.746;2022-08-21T00:40:11;11.68;;;9.75;;
37199;SDS011;23096;50.892;16.746;2022-08-21T00:42:41;10.00;;;9.08;;
37199;SDS011;23096;50.892;16.746;2022-08-21T00:45:08;10.60;;;9.60;;
37199;SDS011;23096;50.892;16.746;2022-08-21T00:47:36;11.60;;;10.48;;
37199;SDS011;23096;50.892;16.746;2022-08-21T00:50:04;12.10;;;10.40;;
37199;SDS011;23096;50.892;16.746;2022-08-21T00:52:34;12.07;;;9.90;;
37199;SDS011;23096;50.892;16.746;2022-08-21T00:55:03;10.90;;;9.65;;
37199;SDS011;23096;50.892;16.746;2022-08-21T00:57:34;12.58;;;11.28;;
37199;SDS011;23096;50.892;16.746;2022-08-21T01:00:12;14.35;;;10.93;;
37199;SDS011;23096;50.892;16.746;2022-08-21T01:02:42;11.83;;;10.63;;
37199;SDS011;23096;50.892;16.746;2022-08-21T01:05:09;11.25;;;10.05;;
37199;SDS011;23096;50.892;16.746;2022-08-21T01:07:36;11.00;;;9.90;;
37199;SDS011;23096;50.892;16.746;2022-08-21T01:10:03;15.68;;;10.43;;
37199;SDS011;23096;50.892;16.746;2022-08-21T01:12:32;10.05;;;9.05;;
37199;SDS011;23096;50.892;16.746;2022-08-21T01:14:59;9.95;;;8.80;;
37199;SDS011;23096;50.892;16.746;2022-08-21T01:17:29;9.90;;;8.55;;
37199;SDS011;23096;50.892;16.746;2022-08-21T01:19:58;9.63;;;8.73;;
37199;SDS011;23096;50.892;16.746;2022-08-21T01:22:26;9.73;;;8.80;;
37199;SDS011;23096;50.892;16.746;2022-08-21T01:24:52;8.83;;;7.92;;
37199;SDS011;23096;50.892;16.746;2022-08-21T01:27:19;8.40;;;7.53;;
37199;SDS011;23096;50.892;16.746;2022-08-21T01:32:21;9.48;;;7.05;;
37199;SDS011;23096;50.892;16.746;2022-08-21T01:34:48;8.25;;;6.97;;
37199;SDS011;23096;50.892;16.746;2022-08-21T01:37:16;8.33;;;6.47;;
37199;SDS011;23096;50.892;16.746;2022-08-21T01:39:44;5.62;;;4.70;;
37199;SDS011;23096;50.892;16.746;2022-08-21T01:42:11;5.40;;;4.75;;
37199;SDS011;23096;50.892;16.746;2022-08-21T01:44:38;5.30;;;4.22;;
37199;SDS011;23096;50.892;16.746;2022-08-21T01:47:06;5.62;;;4.20;;
37199;SDS011;23096;50.892;16.746;2022-08-21T01:49:35;5.40;;;4.60;;
37199;SDS011;23096;50.892;16.746;2022-08-21T01:52:03;4.95;;;4.45;;
37199;SDS011;23096;50.892;16.746;2022-08-21T01:54:30;9.63;;;4.87;;
37199;SDS011;23096;50.892;16.746;2022-08-21T01:56:56;6.83;;;5.20;;
37199;SDS011;23096;50.892;16.746;2022-08-21T01:59:25;6.28;;;3.98;;
37199;SDS011;23096;50.892;16.746;2022-08-21T02:01:52;7.55;;;4.55;;
37199;SDS011;23096;50.892;16.746;2022-08-21T02:04:21;5.10;;;3.70;;
37199;SDS011;23096;50.892;16.746;2022-08-21T02:06:48;4.50;;;4.08;;
37199;SDS011;23096;50.892;16.746;2022-08-21T02:09:15;4.42;;;4.03;;
37199;SDS011;23096;50.892;16.746;2022-08-21T02:11:42;4.95;;;4.20;;
37199;SDS011;23096;50.892;16.746;2022-08-21T02:14:09;4.22;;;3.30;;
37199;SDS011;23096;50.892;16.746;2022-08-21T02:16:39;9.85;;;4.30;;
37199;SDS011;23096;50.892;16.746;2022-08-21T02:19:07;5.67;;;4.40;;
37199;SDS011;23096;50.892;16.746;2022-08-21T02:21:34;4.45;;;4.05;;
37199;SDS011;23096;50.892;16.746;2022-08-21T02:24:01;5.58;;;3.58;;
37199;SDS011;23096;50.892;16.746;2022-08-21T02:26:27;4.20;;;3.80;;
37199;SDS011;23096;50.892;16.746;2022-08-21T02:28:53;6.72;;;4.17;;
37199;SDS011;23096;50.892;16.746;2022-08-21T02:31:19;4.62;;;3.70;;
37199;SDS011;23096;50.892;16.746;2022-08-21T02:33:46;4.80;;;4.35;;
37199;SDS011;23096;50.892;16.746;2022-08-21T02:36:12;6.40;;;4.05;;
37199;SDS011;23096;50.892;16.746;2022-08-21T02:38:39;4.35;;;3.55;;
37199;SDS011;23096;50.892;16.746;2022-08-21T02:41:12;3.92;;;3.55;;
37199;SDS011;23096;50.892;16.746;2022-08-21T02:43:39;3.90;;;2.58;;
37199;SDS011;23096;50.892;16.746;2022-08-21T02:46:06;2.60;;;2.40;;
37199;SDS011;23096;50.892;16.746;2022-08-21T02:48:35;5.00;;;3.08;;
37199;SDS011;23096;50.892;16.746;2022-08-21T02:51:04;2.90;;;2.60;;
37199;SDS011;23096;50.892;16.746;2022-08-21T02:53:32;3.45;;;2.67;;
37199;SDS011;23096;50.892;16.746;2022-08-21T02:56:00;3.65;;;3.15;;
37199;SDS011;23096;50.892;16.746;2022-08-21T02:58:32;4.50;;;3.80;;
37199;SDS011;23096;50.892;16.746;2022-08-21T03:01:04;3.85;;;3.00;;
37199;SDS011;23096;50.892;16.746;2022-08-21T03:03:33;4.42;;;4.03;;
37199;SDS011;23096;50.892;16.746;2022-08-21T03:06:00;4.40;;;4.00;;
37199;SDS011;23096;50.892;16.746;2022-08-21T03:08:27;6.28;;;4.05;;
37199;SDS011;23096;50.892;16.746;2022-08-21T03:10:53;3.98;;;3.58;;
37199;SDS011;23096;50.892;16.746;2022-08-21T03:13:19;5.15;;;4.55;;
37199;SDS011;23096;50.892;16.746;2022-08-21T03:15:47;4.47;;;3.80;;
37199;SDS011;23096;50.892;16.746;2022-08-21T03:18:14;4.20;;;3.80;;
37199;SDS011;23096;50.892;16.746;2022-08-21T03:20:42;5.78;;;3.58;;
37199;SDS011;23096;50.892;16.746;2022-08-21T03:23:10;3.45;;;3.15;;
37199;SDS011;23096;50.892;16.746;2022-08-21T03:25:37;3.15;;;2.70;;
37199;SDS011;23096;50.892;16.746;2022-08-21T03:28:05;3.15;;;2.83;;
37199;SDS011;23096;50.892;16.746;2022-08-21T03:30:35;3.30;;;3.00;;
37199;SDS011;23096;50.892;16.746;2022-08-21T03:33:02;4.95;;;3.50;;
37199;SDS011;23096;50.892;16.746;2022-08-21T03:35:28;4.00;;;3.60;;
37199;SDS011;23096;50.892;16.746;2022-08-21T03:37:55;4.33;;;3.92;;
37199;SDS011;23096;50.892;16.746;2022-08-21T03:40:22;3.37;;;3.08;;
37199;SDS011;23096;50.892;16.746;2022-08-21T03:42:50;3.95;;;3.25;;
37199;SDS011;23096;50.892;16.746;2022-08-21T03:45:17;5.78;;;3.60;;
37199;SDS011;23096;50.892;16.746;2022-08-21T03:47:56;4.40;;;3.70;;
37199;SDS011;23096;50.892;16.746;2022-08-21T03:50:25;3.70;;;3.30;;
37199;SDS011;23096;50.892;16.746;2022-08-21T03:52:55;4.45;;;3.42;;
37199;SDS011;23096;50.892;16.746;2022-08-21T03:55:23;4.15;;;3.10;;
37199;SDS011;23096;50.892;16.746;2022-08-21T03:57:50;3.52;;;3.22;;
37199;SDS011;23096;50.892;16.746;2022-08-21T04:00:17;3.75;;;3.40;;
37199;SDS011;23096;50.892;16.746;2022-08-21T04:02:44;3.00;;;2.70;;
37199;SDS011;23096;50.892;16.746;2022-08-21T04:05:12;2.58;;;2.37;;
37199;SDS011;23096;50.892;16.746;2022-08-21T04:07:42;3.37;;;2.77;;
37199;SDS011;23096;50.892;16.746;2022-08-21T04:10:08;3.12;;;2.83;;
37199;SDS011;23096;50.892;16.746;2022-08-21T04:12:35;2.77;;;2.58;;
37199;SDS011;23096;50.892;16.746;2022-08-21T04:15:01;4.00;;;2.58;;
37199;SDS011;23096;50.892;16.746;2022-08-21T04:17:27;4.62;;;3.02;;
37199;SDS011;23096;50.892;16.746;2022-08-21T04:19:53;5.05;;;2.52;;
37199;SDS011;23096;50.892;16.746;2022-08-21T04:22:19;2.90;;;2.60;;
37199;SDS011;23096;50.892;16.746;2022-08-21T04:24:46;4.50;;;2.90;;
37199;SDS011;23096;50.892;16.746;2022-08-21T04:27:12;2.95;;;2.47;;
37199;SDS011;23096;50.892;16.746;2022-08-21T04:29:38;3.42;;;2.60;;
37199;SDS011;23096;50.892;16.746;2022-08-21T04:32:04;8.63;;;3.02;;
37199;SDS011;23096;50.892;16.746;2022-08-21T04:34:31;2.95;;;2.75;;
37199;SDS011;23096;50.892;16.746;2022-08-21T04:36:57;9.18;;;4.00;;
37199;SDS011;23096;50.892;16.746;2022-08-21T04:39:23;4.83;;;3.72;;
37199;SDS011;23096;50.892;16.746;2022-08-21T04:41:49;4.85;;;4.33;;
37199;SDS011;23096;50.892;16.746;2022-08-21T04:44:15;7.42;;;4.55;;
37199;SDS011;23096;50.892;16.746;2022-08-21T04:46:41;5.05;;;4.50;;
37199;SDS011;23096;50.892;16.746;2022-08-21T04:49:07;8.93;;;5.50;;
37199;SDS011;23096;50.892;16.746;2022-08-21T04:51:34;6.40;;;4.58;;
37199;SDS011;23096;50.892;16.746;2022-08-21T04:54:06;8.53;;;5.00;;
37199;SDS011;23096;50.892;16.746;2022-08-21T04:56:41;5.12;;;4.45;;
37199;SDS011;23096;50.892;16.746;2022-08-21T04:59:21;5.05;;;4.55;;
37199;SDS011;23096;50.892;16.746;2022-08-21T05:01:48;5.60;;;5.08;;
37199;SDS011;23096;50.892;16.746;2022-08-21T05:04:16;5.65;;;5.10;;
37199;SDS011;23096;50.892;16.746;2022-08-21T05:06:47;5.28;;;4.78;;
37199;SDS011;23096;50.892;16.746;2022-08-21T05:09:18;6.15;;;4.70;;
37199;SDS011;23096;50.892;16.746;2022-08-21T05:11:46;6.62;;;4.70;;
37199;SDS011;23096;50.892;16.746;2022-08-21T05:14:12;6.00;;;4.95;;
37199;SDS011;23096;50.892;16.746;2022-08-21T05:16:38;5.33;;;4.83;;
37199;SDS011;23096;50.892;16.746;2022-08-21T05:19:06;4.60;;;4.20;;
37199;SDS011;23096;50.892;16.746;2022-08-21T05:21:37;5.72;;;4.47;;
37199;SDS011;23096;50.892;16.746;2022-08-21T05:24:06;6.12;;;5.17;;
37199;SDS011;23096;50.892;16.746;2022-08-21T05:26:33;6.55;;;4.05;;
37199;SDS011;23096;50.892;16.746;2022-08-21T05:29:02;3.83;;;3.47;;
37199;SDS011;23096;50.892;16.746;2022-08-21T05:31:29;3.65;;;3.35;;
37199;SDS011;23096;50.892;16.746;2022-08-21T05:33:55;6.65;;;3.92;;
37199;SDS011;23096;50.892;16.746;2022-08-21T05:36:21;3.37;;;3.08;;
37199;SDS011;23096;50.892;16.746;2022-08-21T05:38:48;4.85;;;2.47;;
37199;SDS011;23096;50.892;16.746;2022-08-21T05:41:14;3.50;;;1.92;;
37199;SDS011;23096;50.892;16.746;2022-08-21T05:43:40;3.65;;;2.25;;
37199;SDS011;23096;50.892;16.746;2022-08-21T05:46:06;2.52;;;2.33;;
37199;SDS011;23096;50.892;16.746;2022-08-21T05:48:34;1.95;;;1.80;;
37199;SDS011;23096;50.892;16.746;2022-08-21T05:51:05;4.60;;;3.05;;
37199;SDS011;23096;50.892;16.746;2022-08-21T05:53:35;3.80;;;2.90;;
37199;SDS011;23096;50.892;16.746;2022-08-21T05:56:02;4.47;;;3.00;;
37199;SDS011;23096;50.892;16.746;2022-08-21T05:58:30;3.52;;;3.22;;
37199;SDS011;23096;50.892;16.746;2022-08-21T06:00:58;3.83;;;3.40;;
37199;SDS011;23096;50.892;16.746;2022-08-21T06:03:27;4.05;;;3.65;;
37199;SDS011;23096;50.892;16.746;2022-08-21T06:05:57;5.87;;;5.05;;
37199;SDS011;23096;50.892;16.746;2022-08-21T06:08:24;4.28;;;3.87;;
37199;SDS011;23096;50.892;16.746;2022-08-21T06:10:51;4.33;;;3.92;;
37199;SDS011;23096;50.892;16.746;2022-08-21T06:13:19;4.92;;;3.52;;
37199;SDS011;23096;50.892;16.746;2022-08-21T06:15:47;4.10;;;3.70;;
37199;SDS011;23096;50.892;16.746;2022-08-21T06:18:13;4.70;;;4.30;;
37199;SDS011;23096;50.892;16.746;2022-08-21T06:20:40;4.40;;;3.60;;
37199;SDS011;23096;50.892;16.746;2022-08-21T06:23:07;4.90;;;3.42;;
37199;SDS011;23096;50.892;16.746;2022-08-21T06:25:34;4.15;;;3.75;;
37199;SDS011;23096;50.892;16.746;2022-08-21T06:28:07;6.25;;;3.25;;
37199;SDS011;23096;50.892;16.746;2022-08-21T06:30:36;6.78;;;3.92;;
37199;SDS011;23096;50.892;16.746;2022-08-21T06:33:03;6.12;;;3.70;;
37199;SDS011;23096;50.892;16.746;2022-08-21T06:35:31;5.80;;;3.80;;
37199;SDS011;23096;50.892;16.746;2022-08-21T06:37:57;5.03;;;4.03;;
37199;SDS011;23096;50.892;16.746;2022-08-21T06:40:25;6.78;;;3.80;;
37199;SDS011;23096;50.892;16.746;2022-08-21T06:42:52;4.25;;;3.70;;
37199;SDS011;23096;50.892;16.746;2022-08-21T06:45:19;6.58;;;4.35;;
37199;SDS011;23096;50.892;16.746;2022-08-21T06:47:46;6.33;;;3.85;;
37199;SDS011;23096;50.892;16.746;2022-08-21T06:50:13;8.13;;;4.05;;
37199;SDS011;23096;50.892;16.746;2022-08-21T06:52:39;7.03;;;4.58;;
37199;SDS011;23096;50.892;16.746;2022-08-21T06:55:09;6.35;;;3.80;;
37199;SDS011;23096;50.892;16.746;2022-08-21T06:57:35;6.78;;;4.15;;
37199;SDS011;23096;50.892;16.746;2022-08-21T07:00:05;8.50;;;4.20;;
37199;SDS011;23096;50.892;16.746;2022-08-21T07:02:34;4.60;;;3.72;;
37199;SDS011;23096;50.892;16.746;2022-08-21T07:05:00;6.78;;;4.45;;
37199;SDS011;23096;50.892;16.746;2022-08-21T07:07:27;5.53;;;3.47;;
37199;SDS011;23096;50.892;16.746;2022-08-21T07:09:53;6.30;;;4.22;;
37199;SDS011;23096;50.892;16.746;2022-08-21T07:12:19;6.20;;;3.80;;
37199;SDS011;23096;50.892;16.746;2022-08-21T07:14:45;5.12;;;3.85;;
37199;SDS011;23096;50.892;16.746;2022-08-21T07:17:11;6.45;;;3.50;;
37199;SDS011;23096;50.892;16.746;2022-08-21T07:19:38;5.67;;;3.77;;
37199;SDS011;23096;50.892;16.746;2022-08-21T07:22:04;5.47;;;4.17;;
37199;SDS011;23096;50.892;16.746;2022-08-21T07:24:30;5.80;;;3.75;;
37199;SDS011;23096;50.892;16.746;2022-08-21T07:26:56;3.67;;;3.22;;
37199;SDS011;23096;50.892;16.746;2022-08-21T07:29:22;7.17;;;3.33;;
37199;SDS011;23096;50.892;16.746;2022-08-21T07:31:48;6.42;;;3.27;;
37199;SDS011;23096;50.892;16.746;2022-08-21T07:34:14;6.75;;;3.50;;
37199;SDS011;23096;50.892;16.746;2022-08-21T07:36:40;4.22;;;3.30;;
37199;SDS011;23096;50.892;16.746;2022-08-21T07:39:06;5.80;;;4.05;;
37199;SDS011;23096;50.892;16.746;2022-08-21T07:41:33;6.78;;;3.98;;
37199;SDS011;23096;50.892;16.746;2022-08-21T07:44:00;6.25;;;4.00;;
37199;SDS011;23096;50.892;16.746;2022-08-21T07:46:27;8.20;;;3.87;;
37199;SDS011;23096;50.892;16.746;2022-08-21T07:48:53;6.65;;;4.40;;
37199;SDS011;23096;50.892;16.746;2022-08-21T07:51:20;5.83;;;4.03;;
37199;SDS011;23096;50.892;16.746;2022-08-21T07:53:51;7.40;;;3.83;;
37199;SDS011;23096;50.892;16.746;2022-08-21T07:56:19;6.03;;;4.00;;
37199;SDS011;23096;50.892;16.746;2022-08-21T07:58:46;6.35;;;3.92;;
37199;SDS011;23096;50.892;16.746;2022-08-21T08:01:12;6.58;;;4.22;;
37199;SDS011;23096;50.892;16.746;2022-08-21T08:03:40;4.75;;;4.10;;
37199;SDS011;23096;50.892;16.746;2022-08-21T08:06:06;11.65;;;4.70;;
37199;SDS011;23096;50.892;16.746;2022-08-21T08:08:35;5.03;;;3.87;;
37199;SDS011;23096;50.892;16.746;2022-08-21T08:11:01;6.33;;;4.08;;
37199;SDS011;23096;50.892;16.746;2022-08-21T08:13:27;5.03;;;4.25;;
37199;SDS011;23096;50.892;16.746;2022-08-21T08:15:53;8.90;;;4.28;;
37199;SDS011;23096;50.892;16.746;2022-08-21T08:18:19;9.10;;;4.28;;
37199;SDS011;23096;50.892;16.746;2022-08-21T08:20:46;4.75;;;3.20;;
37199;SDS011;23096;50.892;16.746;2022-08-21T08:23:13;8.90;;;4.30;;
37199;SDS011;23096;50.892;16.746;2022-08-21T08:25:40;4.10;;;3.27;;
37199;SDS011;23096;50.892;16.746;2022-08-21T08:28:07;4.60;;;3.70;;
37199;SDS011;23096;50.892;16.746;2022-08-21T08:30:33;5.58;;;3.60;;
37199;SDS011;23096;50.892;16.746;2022-08-21T08:33:03;3.95;;;3.42;;
37199;SDS011;23096;50.892;16.746;2022-08-21T08:35:29;5.83;;;3.70;;
37199;SDS011;23096;50.892;16.746;2022-08-21T08:37:55;4.17;;;3.15;;
37199;SDS011;23096;50.892;16.746;2022-08-21T08:43:05;9.18;;;3.95;;
37199;SDS011;23096;50.892;16.746;2022-08-21T08:45:32;6.08;;;3.22;;
37199;SDS011;23096;50.892;16.746;2022-08-21T08:48:05;5.90;;;3.08;;
37199;SDS011;23096;50.892;16.746;2022-08-21T08:53:17;8.75;;;3.52;;
37199;SDS011;23096;50.892;16.746;2022-08-21T08:55:47;5.45;;;3.27;;
37199;SDS011;23096;50.892;16.746;2022-08-21T08:58:19;5.08;;;3.12;;
37199;SDS011;23096;50.892;16.746;2022-08-21T09:00:53;6.58;;;3.80;;
37199;SDS011;23096;50.892;16.746;2022-08-21T09:03:21;4.50;;;3.60;;
37199;SDS011;23096;50.892;16.746;2022-08-21T09:08:37;4.90;;;3.15;;
37199;SDS011;23096;50.892;16.746;2022-08-21T09:14:16;5.95;;;3.00;;
37199;SDS011;23096;50.892;16.746;2022-08-21T09:20:03;5.05;;;3.27;;
37199;SDS011;23096;50.892;16.746;2022-08-21T09:28:35;4.85;;;3.33;;
37199;SDS011;23096;50.892;16.746;2022-08-21T09:31:25;6.30;;;3.37;;
37199;SDS011;23096;50.892;16.746;2022-08-21T09:33:35;3.50;;;3.12;;
37199;SDS011;23096;50.892;16.746;2022-08-21T09:36:02;5.05;;;3.47;;
37199;SDS011;23096;50.892;16.746;2022-08-21T09:38:31;5.03;;;2.65;;
37199;SDS011;23096;50.892;16.746;2022-08-21T09:43:34;5.42;;;3.02;;
37199;SDS011;23096;50.892;16.746;2022-08-21T09:46:19;6.12;;;3.08;;
37199;SDS011;23096;50.892;16.746;2022-08-21T09:48:49;5.08;;;2.80;;
37199;SDS011;23096;50.892;16.746;2022-08-21T09:51:23;4.97;;;3.33;;
37199;SDS011;23096;50.892;16.746;2022-08-21T09:56:38;4.92;;;3.20;;
37199;SDS011;23096;50.892;16.746;2022-08-21T09:59:29;6.50;;;3.62;;
37199;SDS011;23096;50.892;16.746;2022-08-21T10:01:58;4.22;;;2.72;;
37199;SDS011;23096;50.892;16.746;2022-08-21T10:04:29;3.67;;;2.67;;
37199;SDS011;23096;50.892;16.746;2022-08-21T10:07:19;5.83;;;2.83;;
37199;SDS011;23096;50.892;16.746;2022-08-21T10:09:37;3.75;;;2.85;;
37199;SDS011;23096;50.892;16.746;2022-08-21T10:20:51;3.55;;;2.42;;
37199;SDS011;23096;50.892;16.746;2022-08-21T10:26:45;3.52;;;2.87;;
37199;SDS011;23096;50.892;16.746;2022-08-21T10:41:13;4.95;;;2.80;;
37199;SDS011;23096;50.892;16.746;2022-08-21T11:00:30;3.50;;;2.75;;
37199;SDS011;23096;50.892;16.746;2022-08-21T11:03:12;6.67;;;3.15;;
37199;SDS011;23096;50.892;16.746;2022-08-21T11:05:50;2.92;;;2.62;;
37199;SDS011;23096;50.892;16.746;2022-08-21T11:08:22;6.80;;;3.42;;
37199;SDS011;23096;50.892;16.746;2022-08-21T11:11:15;6.25;;;2.45;;
37199;SDS011;23096;50.892;16.746;2022-08-21T11:16:36;5.33;;;3.08;;
37199;SDS011;23096;50.892;16.746;2022-08-21T11:19:08;4.53;;;3.12;;
37199;SDS011;23096;50.892;16.746;2022-08-21T11:21:48;7.53;;;2.47;;
37199;SDS011;23096;50.892;16.746;2022-08-21T11:24:29;4.85;;;2.30;;
37199;SDS011;23096;50.892;16.746;2022-08-21T11:30:05;5.35;;;2.52;;
37199;SDS011;23096;50.892;16.746;2022-08-21T11:41:30;5.12;;;2.50;;
37199;SDS011;23096;50.892;16.746;2022-08-21T11:52:21;5.45;;;3.05;;
37199;SDS011;23096;50.892;16.746;2022-08-21T11:58:08;6.47;;;3.17;;
37199;SDS011;23096;50.892;16.746;2022-08-21T12:00:39;4.85;;;3.08;;
37199;SDS011;23096;50.892;16.746;2022-08-21T12:05:51;5.03;;;3.02;;
37199;SDS011;23096;50.892;16.746;2022-08-21T12:08:14;5.15;;;2.90;;
37199;SDS011;23096;50.892;16.746;2022-08-21T12:13:57;3.80;;;3.35;;
37199;SDS011;23096;50.892;16.746;2022-08-21T12:16:33;7.03;;;4.17;;
37199;SDS011;23096;50.892;16.746;2022-08-21T12:19:07;6.80;;;4.20;;
37199;SDS011;23096;50.892;16.746;2022-08-21T12:21:50;8.45;;;4.50;;
37199;SDS011;23096;50.892;16.746;2022-08-21T12:27:23;6.65;;;4.78;;
37199;SDS011;23096;50.892;16.746;2022-08-21T12:29:55;13.68;;;5.08;;
37199;SDS011;23096;50.892;16.746;2022-08-21T12:32:29;8.70;;;4.17;;
37199;SDS011;23096;50.892;16.746;2022-08-21T12:35:21;7.28;;;4.47;;
37199;SDS011;23096;50.892;16.746;2022-08-21T12:41:03;6.72;;;3.67;;
37199;SDS011;23096;50.892;16.746;2022-08-21T12:43:37;6.28;;;3.42;;
37199;SDS011;23096;50.892;16.746;2022-08-21T12:46:22;6.37;;;3.42;;
37199;SDS011;23096;50.892;16.746;2022-08-21T12:48:56;5.12;;;3.27;;
37199;SDS011;23096;50.892;16.746;2022-08-21T12:51:55;7.17;;;3.87;;
37199;SDS011;23096;50.892;16.746;2022-08-21T12:54:22;6.15;;;3.92;;
37199;SDS011;23096;50.892;16.746;2022-08-21T12:57:00;5.95;;;3.80;;
37199;SDS011;23096;50.892;16.746;2022-08-21T12:59:25;7.42;;;3.77;;
37199;SDS011;23096;50.892;16.746;2022-08-21T13:01:52;6.45;;;3.60;;
37199;SDS011;23096;50.892;16.746;2022-08-21T13:04:27;6.40;;;3.67;;
37199;SDS011;23096;50.892;16.746;2022-08-21T13:06:55;3.70;;;3.33;;
37199;SDS011;23096;50.892;16.746;2022-08-21T13:09:26;9.05;;;3.70;;
37199;SDS011;23096;50.892;16.746;2022-08-21T13:11:55;4.12;;;3.17;;
37199;SDS011;23096;50.892;16.746;2022-08-21T13:14:36;4.22;;;3.60;;
37199;SDS011;23096;50.892;16.746;2022-08-21T13:17:06;6.80;;;4.00;;
37199;SDS011;23096;50.892;16.746;2022-08-21T13:19:33;5.08;;;3.67;;
37199;SDS011;23096;50.892;16.746;2022-08-21T13:22:00;4.67;;;3.72;;
37199;SDS011;23096;50.892;16.746;2022-08-21T13:24:29;8.90;;;3.85;;
37199;SDS011;23096;50.892;16.746;2022-08-21T13:26:59;6.33;;;3.75;;
37199;SDS011;23096;50.892;16.746;2022-08-21T13:29:33;5.30;;;3.30;;
37199;SDS011;23096;50.892;16.746;2022-08-21T13:32:01;4.62;;;3.10;;
37199;SDS011;23096;50.892;16.746;2022-08-21T13:34:35;4.12;;;3.10;;
37199;SDS011;23096;50.892;16.746;2022-08-21T13:37:04;3.20;;;2.83;;
37199;SDS011;23096;50.892;16.746;2022-08-21T13:39:33;5.80;;;3.40;;
37199;SDS011;23096;50.892;16.746;2022-08-21T13:42:00;5.03;;;3.35;;
37199;SDS011;23096;50.892;16.746;2022-08-21T13:47:04;3.25;;;2.95;;
37199;SDS011;23096;50.892;16.746;2022-08-21T13:49:34;7.80;;;2.92;;
37199;SDS011;23096;50.892;16.746;2022-08-21T13:52:02;4.08;;;2.83;;
37199;SDS011;23096;50.892;16.746;2022-08-21T13:54:36;4.47;;;3.10;;
37199;SDS011;23096;50.892;16.746;2022-08-21T13:57:15;3.77;;;2.52;;
37199;SDS011;23096;50.892;16.746;2022-08-21T13:59:45;2.75;;;2.37;;
37199;SDS011;23096;50.892;16.746;2022-08-21T14:02:18;4.80;;;2.60;;
37199;SDS011;23096;50.892;16.746;2022-08-21T14:04:52;5.83;;;3.80;;
37199;SDS011;23096;50.892;16.746;2022-08-21T14:07:33;6.05;;;3.02;;
37199;SDS011;23096;50.892;16.746;2022-08-21T14:10:02;5.10;;;3.10;;
37199;SDS011;23096;50.892;16.746;2022-08-21T14:12:45;6.53;;;3.52;;
37199;SDS011;23096;50.892;16.746;2022-08-21T14:15:16;6.97;;;3.77;;
37199;SDS011;23096;50.892;16.746;2022-08-21T14:17:46;5.87;;;3.15;;
37199;SDS011;23096;50.892;16.746;2022-08-21T14:20:35;6.45;;;4.03;;
37199;SDS011;23096;50.892;16.746;2022-08-21T14:22:56;6.47;;;3.42;;
37199;SDS011;23096;50.892;16.746;2022-08-21T14:27:59;3.92;;;3.02;;
37199;SDS011;23096;50.892;16.746;2022-08-21T14:30:43;5.90;;;3.70;;
37199;SDS011;23096;50.892;16.746;2022-08-21T14:33:11;8.78;;;3.45;;
37199;SDS011;23096;50.892;16.746;2022-08-21T14:35:41;7.70;;;3.90;;
37199;SDS011;23096;50.892;16.746;2022-08-21T14:38:12;5.47;;;3.40;;
37199;SDS011;23096;50.892;16.746;2022-08-21T14:40:41;15.55;;;4.62;;
37199;SDS011;23096;50.892;16.746;2022-08-21T14:43:08;9.03;;;4.25;;
37199;SDS011;23096;50.892;16.746;2022-08-21T14:45:35;15.00;;;5.58;;
37199;SDS011;23096;50.892;16.746;2022-08-21T14:48:03;7.72;;;4.45;;
37199;SDS011;23096;50.892;16.746;2022-08-21T14:50:29;4.87;;;3.72;;
37199;SDS011;23096;50.892;16.746;2022-08-21T14:52:56;7.83;;;4.33;;
37199;SDS011;23096;50.892;16.746;2022-08-21T14:55:22;7.25;;;4.00;;
37199;SDS011;23096;50.892;16.746;2022-08-21T14:57:50;7.78;;;4.35;;
37199;SDS011;23096;50.892;16.746;2022-08-21T15:00:20;8.20;;;4.05;;
37199;SDS011;23096;50.892;16.746;2022-08-21T15:02:48;7.30;;;3.85;;
37199;SDS011;23096;50.892;16.746;2022-08-21T15:05:15;5.28;;;3.65;;
37199;SDS011;23096;50.892;16.746;2022-08-21T15:07:42;7.60;;;3.72;;
37199;SDS011;23096;50.892;16.746;2022-08-21T15:10:12;4.95;;;3.42;;
37199;SDS011;23096;50.892;16.746;2022-08-21T15:12:38;8.43;;;3.42;;
37199;SDS011;23096;50.892;16.746;2022-08-21T15:15:05;4.95;;;3.52;;
37199;SDS011;23096;50.892;16.746;2022-08-21T15:17:33;5.33;;;3.55;;
37199;SDS011;23096;50.892;16.746;2022-08-21T15:19:59;3.92;;;2.90;;
37199;SDS011;23096;50.892;16.746;2022-08-21T15:22:25;6.15;;;3.60;;
37199;SDS011;23096;50.892;16.746;2022-08-21T15:24:51;4.15;;;3.12;;
37199;SDS011;23096;50.892;16.746;2022-08-21T15:27:18;4.72;;;3.40;;
37199;SDS011;23096;50.892;16.746;2022-08-21T15:29:44;7.92;;;3.08;;
37199;SDS011;23096;50.892;16.746;2022-08-21T15:32:24;5.53;;;3.33;;
37199;SDS011;23096;50.892;16.746;2022-08-21T15:34:54;3.95;;;3.52;;
37199;SDS011;23096;50.892;16.746;2022-08-21T15:37:22;5.80;;;3.22;;
37199;SDS011;23096;50.892;16.746;2022-08-21T15:39:50;5.05;;;3.45;;
37199;SDS011;23096;50.892;16.746;2022-08-21T15:42:17;5.95;;;3.25;;
37199;SDS011;23096;50.892;16.746;2022-08-21T15:44:44;4.72;;;3.58;;
37199;SDS011;23096;50.892;16.746;2022-08-21T15:47:13;4.17;;;3.22;;
37199;SDS011;23096;50.892;16.746;2022-08-21T15:49:46;4.35;;;3.67;;
37199;SDS011;23096;50.892;16.746;2022-08-21T15:52:17;4.58;;;3.65;;
37199;SDS011;23096;50.892;16.746;2022-08-21T15:54:43;5.40;;;3.60;;
37199;SDS011;23096;50.892;16.746;2022-08-21T15:57:15;3.83;;;3.42;;
37199;SDS011;23096;50.892;16.746;2022-08-21T15:59:42;5.12;;;3.47;;
37199;SDS011;23096;50.892;16.746;2022-08-21T16:02:20;6.70;;;3.70;;
37199;SDS011;23096;50.892;16.746;2022-08-21T16:04:52;5.97;;;3.90;;
37199;SDS011;23096;50.892;16.746;2022-08-21T16:07:18;6.28;;;4.10;;
37199;SDS011;23096;50.892;16.746;2022-08-21T16:09:45;6.72;;;3.90;;
37199;SDS011;23096;50.892;16.746;2022-08-21T16:12:13;6.00;;;3.52;;
37199;SDS011;23096;50.892;16.746;2022-08-21T16:14:48;7.10;;;3.67;;
37199;SDS011;23096;50.892;16.746;2022-08-21T16:17:16;8.53;;;4.60;;
37199;SDS011;23096;50.892;16.746;2022-08-21T16:19:42;6.85;;;4.33;;
37199;SDS011;23096;50.892;16.746;2022-08-21T16:22:08;6.50;;;4.05;;
37199;SDS011;23096;50.892;16.746;2022-08-21T16:24:35;6.78;;;4.08;;
37199;SDS011;23096;50.892;16.746;2022-08-21T16:27:01;5.00;;;4.00;;
37199;SDS011;23096;50.892;16.746;2022-08-21T16:29:30;4.87;;;4.15;;
37199;SDS011;23096;50.892;16.746;2022-08-21T16:31:59;6.75;;;4.40;;
37199;SDS011;23096;50.892;16.746;2022-08-21T16:34:26;6.65;;;4.30;;
37199;SDS011;23096;50.892;16.746;2022-08-21T16:36:53;7.40;;;4.42;;